createdAt,value
2023-08-11T00:01:11.522Z,15.70
2023-08-11T00:03:39.432Z,15.70
2023-08-11T00:06:08.579Z,15.69
2023-08-11T00:08:38.485Z,15.72
2023-08-11T00:11:06.455Z,15.78
2023-08-11T00:13:34.570Z,15.61
2023-08-11T00:16:03.269Z,15.65
2023-08-11T00:18:32.590Z,15.64
2023-08-11T00:21:01.390Z,15.64
2023-08-11T00:23:29.157Z,15.59
2023-08-11T00:25:56.950Z,15.54
2023-08-11T00:28:28.053Z,15.50
2023-08-11T00:30:56.180Z,15.46
2023-08-11T00:33:24.346Z,15.44
2023-08-11T00:35:53.548Z,15.43
2023-08-11T00:38:23.925Z,15.43
2023-08-11T00:40:53.870Z,15.44
2023-08-11T00:43:23.996Z,15.45
2023-08-11T00:45:51.839Z,15.43
2023-08-11T00:48:19.662Z,15.41
2023-08-11T00:50:47.688Z,15.29
2023-08-11T00:53:16.925Z,15.16
2023-08-11T00:55:44.820Z,15.09
2023-08-11T00:58:12.648Z,15.07
2023-08-11T01:00:41.062Z,15.06
2023-08-11T01:03:09.481Z,15.03
2023-08-11T01:05:48.711Z,15.03
2023-08-11T01:08:27.080Z,15.01
2023-08-11T01:11:03.720Z,14.99
2023-08-11T01:13:35.440Z,15.02
2023-08-11T01:16:05.576Z,15.01
2023-08-11T01:18:34.397Z,14.95
2023-08-11T01:21:07.450Z,14.87
2023-08-11T01:23:36.968Z,14.85
2023-08-11T01:26:05.395Z,14.88
2023-08-11T01:28:35.296Z,14.90
2023-08-11T01:31:04.338Z,14.89
2023-08-11T01:33:32.285Z,14.85
2023-08-11T01:36:00.136Z,14.80
2023-08-11T01:38:28.042Z,14.77
2023-08-11T01:40:57.228Z,14.80
2023-08-11T01:43:26.073Z,14.80
2023-08-11T01:45:54.246Z,14.83
2023-08-11T01:48:23.660Z,14.84
2023-08-11T01:50:51.784Z,14.82
2023-08-11T01:53:19.674Z,14.82
2023-08-11T01:55:48.630Z,14.82
2023-08-11T01:58:17.795Z,14.80
2023-08-11T02:00:45.734Z,14.77
2023-08-11T02:03:14.137Z,14.76
2023-08-11T02:05:42.105Z,14.72
2023-08-11T02:08:09.937Z,14.66
2023-08-11T02:10:37.804Z,14.57
2023-08-11T02:13:05.777Z,14.51
2023-08-11T02:15:35.451Z,14.51
2023-08-11T02:18:04.228Z,14.49
2023-08-11T02:20:34.101Z,14.43
2023-08-11T02:23:01.973Z,14.36
2023-08-11T02:25:29.857Z,14.32
2023-08-11T02:28:01.661Z,14.31
2023-08-11T02:30:31.013Z,14.35
2023-08-11T02:33:02.145Z,14.39
2023-08-11T02:35:30.025Z,14.43
2023-08-11T02:37:57.932Z,14.45
2023-08-11T02:40:26.031Z,14.50
2023-08-11T02:42:57.764Z,14.51
2023-08-11T02:45:27.005Z,14.51
2023-08-11T02:47:56.679Z,14.47
2023-08-11T02:50:25.988Z,14.45
2023-08-11T02:52:53.930Z,14.39
2023-08-11T02:55:21.883Z,14.36
2023-08-11T02:57:49.848Z,14.33
2023-08-11T03:00:18.565Z,14.30
2023-08-11T03:02:48.130Z,14.29
2023-08-11T03:05:17.674Z,14.35
2023-08-11T03:07:49.546Z,14.32
2023-08-11T03:10:17.418Z,14.26
2023-08-11T03:12:46.450Z,14.23
2023-08-11T03:15:14.816Z,14.20
2023-08-11T03:17:43.756Z,14.15
2023-08-11T03:20:14.508Z,14.13
2023-08-11T03:22:43.930Z,14.14
2023-08-11T03:25:14.411Z,14.15
2023-08-11T03:27:44.676Z,14.17
2023-08-11T03:30:19.127Z,14.19
2023-08-11T03:32:52.393Z,14.20
2023-08-11T03:35:22.070Z,14.17
2023-08-11T03:37:51.860Z,14.11
2023-08-11T03:40:21.418Z,14.04
2023-08-11T03:42:53.590Z,14.06
2023-08-11T03:45:22.042Z,14.06
2023-08-11T03:47:50.186Z,14.12
2023-08-11T03:50:23.551Z,14.13
2023-08-11T03:52:51.469Z,14.13
2023-08-11T03:55:21.222Z,14.14
2023-08-11T03:57:49.387Z,14.13
2023-08-11T04:00:21.302Z,14.13
2023-08-11T04:03:02.786Z,14.12
2023-08-11T04:05:30.906Z,14.06
2023-08-11T04:07:58.705Z,14.01
2023-08-11T04:10:27.869Z,14.00
2023-08-11T04:12:55.638Z,13.97
2023-08-11T04:15:25.342Z,13.94
2023-08-11T04:17:53.424Z,13.96
2023-08-11T04:20:23.422Z,13.96
2023-08-11T04:22:52.080Z,14.01
2023-08-11T04:25:19.948Z,14.05
2023-08-11T04:27:50.935Z,14.06
2023-08-11T04:30:19.613Z,14.03
2023-08-11T04:32:50.152Z,14.02
2023-08-11T04:35:18.762Z,13.99
2023-08-11T04:37:48.301Z,14.01
2023-08-11T04:40:18.693Z,14.02
2023-08-11T04:42:50.624Z,14.02
2023-08-11T04:45:22.807Z,14.06
2023-08-11T04:47:50.864Z,14.10
2023-08-11T04:50:21.824Z,14.16
2023-08-11T04:52:53.694Z,14.24
2023-08-11T04:55:21.531Z,14.34
2023-08-11T04:57:50.959Z,14.42
2023-08-11T05:00:19.576Z,14.48
2023-08-11T05:02:47.701Z,14.53
2023-08-11T05:05:15.936Z,14.61
2023-08-11T05:07:43.761Z,14.64
2023-08-11T05:10:11.876Z,14.71
2023-08-11T05:12:40.061Z,14.78
2023-08-11T05:15:09.852Z,14.90
2023-08-11T05:17:37.819Z,14.98
2023-08-11T05:20:08.839Z,15.08
2023-08-11T05:22:36.962Z,15.17
2023-08-11T05:25:06.030Z,15.25
2023-08-11T05:27:34.263Z,15.35
2023-08-11T05:30:02.079Z,15.42
2023-08-11T05:32:31.277Z,15.48
2023-08-11T05:35:00.263Z,15.56
2023-08-11T05:37:28.166Z,15.66
2023-08-11T05:39:56.048Z,15.74
2023-08-11T05:42:25.017Z,15.73
2023-08-11T05:44:52.814Z,15.80
2023-08-11T05:47:20.864Z,15.89
2023-08-11T05:49:50.106Z,16.01
2023-08-11T05:52:18.003Z,16.10
2023-08-11T05:54:45.749Z,16.20
2023-08-11T05:57:13.691Z,16.27
2023-08-11T05:59:42.385Z,16.35
2023-08-11T06:02:10.449Z,16.42
2023-08-11T06:04:38.268Z,16.53
2023-08-11T06:07:07.780Z,16.63
2023-08-11T06:09:35.829Z,16.71
2023-08-11T06:12:03.796Z,16.78
2023-08-11T06:14:31.648Z,16.82
2023-08-11T06:16:59.545Z,16.90
2023-08-11T06:19:27.484Z,16.92
2023-08-11T06:21:55.834Z,17.07
2023-08-11T06:24:25.481Z,17.17
2023-08-11T06:26:53.806Z,17.25
2023-08-11T06:29:22.342Z,17.34
2023-08-11T06:31:50.376Z,17.44
2023-08-11T06:34:19.246Z,17.53
2023-08-11T06:36:48.013Z,17.65
2023-08-11T06:39:16.292Z,17.74
2023-08-11T06:41:45.478Z,17.83
2023-08-11T06:44:13.799Z,17.91
2023-08-11T06:46:41.780Z,17.98
2023-08-11T06:49:09.654Z,18.06
2023-08-11T06:51:37.512Z,18.16
2023-08-11T06:54:05.928Z,18.22
2023-08-11T06:56:33.790Z,18.30
2023-08-11T06:59:03.047Z,18.41
2023-08-11T07:01:32.078Z,18.51
2023-08-11T07:04:01.961Z,18.61
2023-08-11T07:06:30.060Z,18.71
2023-08-11T07:08:57.868Z,18.81
2023-08-11T07:11:25.784Z,18.92
2023-08-11T07:13:53.708Z,19.04
2023-08-11T07:16:23.383Z,19.16
2023-08-11T07:18:51.205Z,19.24
2023-08-11T07:21:19.136Z,19.35
2023-08-11T07:23:47.010Z,19.44
2023-08-11T07:26:15.157Z,19.48
2023-08-11T07:28:43.123Z,19.44
2023-08-11T07:31:10.989Z,19.57
2023-08-11T07:33:41.045Z,19.56
2023-08-11T07:36:10.150Z,19.69
2023-08-11T07:38:42.171Z,19.81
2023-08-11T07:41:10.101Z,19.90
2023-08-11T07:43:38.996Z,19.82
2023-08-11T07:46:07.573Z,20.19
2023-08-11T07:48:35.498Z,20.34
2023-08-11T07:51:06.055Z,20.37
2023-08-11T07:53:33.991Z,20.33
2023-08-11T07:56:01.844Z,20.45
2023-08-11T07:58:29.778Z,20.59
2023-08-11T08:00:57.583Z,20.71
2023-08-11T08:03:25.484Z,20.70
2023-08-11T08:05:53.628Z,20.57
2023-08-11T08:08:22.893Z,20.88
2023-08-11T08:10:50.746Z,20.88
2023-08-11T08:13:19.740Z,21.09
2023-08-11T08:15:47.754Z,21.18
2023-08-11T08:18:15.583Z,21.41
2023-08-11T08:20:43.484Z,21.70
2023-08-11T08:23:13.673Z,21.76
2023-08-11T08:25:43.341Z,22.00
2023-08-11T08:28:13.154Z,22.08
2023-08-11T08:30:40.983Z,22.20
2023-08-11T08:33:09.100Z,22.42
2023-08-11T08:35:37.450Z,22.62
2023-08-11T08:38:06.240Z,22.55
2023-08-11T08:40:36.328Z,22.71
2023-08-11T08:43:05.939Z,22.54
2023-08-11T08:45:39.337Z,22.94
2023-08-11T08:48:15.595Z,23.15
2023-08-11T08:50:43.576Z,23.31
2023-08-11T08:53:11.625Z,23.49
2023-08-11T08:55:39.466Z,23.61
2023-08-11T08:58:12.671Z,23.74
2023-08-11T09:00:40.969Z,23.97
2023-08-11T09:03:13.853Z,24.14
2023-08-11T09:05:41.723Z,24.28
2023-08-11T09:08:09.638Z,24.46
2023-08-11T09:10:38.567Z,24.63
2023-08-11T09:13:07.784Z,24.83
2023-08-11T09:15:36.103Z,25.07
2023-08-11T09:18:04.240Z,25.27
2023-08-11T09:20:32.145Z,25.28
2023-08-11T09:23:00.420Z,25.05
2023-08-11T09:25:29.954Z,25.48
2023-08-11T09:27:58.988Z,25.77
2023-08-11T09:30:32.116Z,26.16
2023-08-11T09:33:01.428Z,26.48
2023-08-11T09:35:29.444Z,26.72
2023-08-11T09:37:57.976Z,26.95
2023-08-11T09:40:25.836Z,26.98
2023-08-11T09:42:56.054Z,27.10
2023-08-11T09:45:24.827Z,27.18
2023-08-11T09:47:54.144Z,27.41
2023-08-11T09:50:23.949Z,27.74
2023-08-11T09:52:53.015Z,27.95
2023-08-11T09:55:22.393Z,28.14
2023-08-11T09:57:50.988Z,28.16
2023-08-11T10:00:20.782Z,27.89
2023-08-11T10:02:56.320Z,27.83
2023-08-11T10:05:30.927Z,28.12
2023-08-11T10:08:02.868Z,28.26
2023-08-11T10:10:33.905Z,28.35
2023-08-11T10:13:07.868Z,28.48
2023-08-11T10:15:37.484Z,28.65
2023-08-11T10:18:07.762Z,28.70
2023-08-11T10:20:38.151Z,28.82
2023-08-11T10:23:06.422Z,29.16
2023-08-11T10:25:34.929Z,29.38
2023-08-11T10:28:03.833Z,29.58
2023-08-11T10:30:31.845Z,29.99
2023-08-11T10:33:07.462Z,30.05
2023-08-11T10:35:51.058Z,30.21
2023-08-11T10:38:27.457Z,30.13
2023-08-11T10:41:01.469Z,29.74
2023-08-11T10:43:32.434Z,29.87
2023-08-11T10:46:20.022Z,30.22
2023-08-11T10:48:47.972Z,30.36
2023-08-11T10:51:31.186Z,30.58
2023-08-11T10:54:02.522Z,30.51
2023-08-11T10:56:33.548Z,30.53
2023-08-11T10:59:14.319Z,30.85
2023-08-11T11:01:43.439Z,30.68
2023-08-11T11:04:12.657Z,30.76
2023-08-11T11:06:42.436Z,30.67
2023-08-11T11:09:10.363Z,30.95
2023-08-11T11:11:40.082Z,30.89
2023-08-11T11:14:09.758Z,31.23
2023-08-11T11:16:38.684Z,31.66
2023-08-11T11:19:08.538Z,31.80
2023-08-11T11:21:37.105Z,31.94
2023-08-11T11:24:07.247Z,31.88
2023-08-11T11:26:35.625Z,32.04
2023-08-11T11:29:06.033Z,32.24
2023-08-11T11:31:35.750Z,32.31
2023-08-11T11:34:04.649Z,32.06
2023-08-11T11:36:32.846Z,32.28
2023-08-11T11:39:05.173Z,32.30
2023-08-11T11:41:34.934Z,32.50
2023-08-11T11:44:03.068Z,32.91
2023-08-11T11:46:34.460Z,31.84
2023-08-11T11:49:09.573Z,31.31
2023-08-11T11:51:40.802Z,31.62
2023-08-11T11:54:08.684Z,32.00
2023-08-11T11:56:39.755Z,32.37
2023-08-11T11:59:10.303Z,32.45
2023-08-11T12:01:39.386Z,32.84
2023-08-11T12:04:07.532Z,33.12
2023-08-11T12:06:35.480Z,33.23
2023-08-11T12:09:10.265Z,33.38
2023-08-11T12:11:40.810Z,33.65
2023-08-11T12:14:09.051Z,33.70
2023-08-11T12:16:38.106Z,33.75
2023-08-11T12:19:08.816Z,33.81
2023-08-11T12:21:38.454Z,33.48
2023-08-11T12:24:08.122Z,33.82
2023-08-11T12:26:35.916Z,33.94
2023-08-11T12:29:06.324Z,33.93
2023-08-11T12:31:34.250Z,33.96
2023-08-11T12:34:02.460Z,33.87
2023-08-11T12:36:30.387Z,34.25
2023-08-11T12:38:58.388Z,34.53
2023-08-11T12:41:26.212Z,34.71
2023-08-11T12:43:54.014Z,34.43
2023-08-11T12:46:23.331Z,34.54
2023-08-11T12:48:51.161Z,34.70
2023-08-11T12:51:19.189Z,34.80
2023-08-11T12:53:46.991Z,34.64
2023-08-11T12:56:14.959Z,34.88
2023-08-11T12:58:43.880Z,35.20
2023-08-11T13:01:13.295Z,35.37
2023-08-11T13:03:44.191Z,34.93
2023-08-11T13:06:12.212Z,34.95
2023-08-11T13:08:42.632Z,35.06
2023-08-11T13:11:10.571Z,35.39
2023-08-11T13:13:38.572Z,35.27
2023-08-11T13:16:06.978Z,35.06
2023-08-11T13:18:34.913Z,35.25
2023-08-11T13:21:04.144Z,35.36
2023-08-11T13:23:33.210Z,35.39
2023-08-11T13:26:01.078Z,34.76
2023-08-11T13:28:29.212Z,35.01
2023-08-11T13:30:57.059Z,35.23
2023-08-11T13:33:25.123Z,35.22
2023-08-11T13:36:02.681Z,35.28
2023-08-11T13:38:32.432Z,34.78
2023-08-11T13:41:00.561Z,34.68
2023-08-11T13:43:28.836Z,35.07
2023-08-11T13:45:57.194Z,35.33
2023-08-11T13:48:30.749Z,35.12
2023-08-11T13:50:59.516Z,34.71
2023-08-11T13:53:30.055Z,34.88
2023-08-11T13:56:00.115Z,34.72
2023-08-11T13:58:27.974Z,34.78
2023-08-11T14:00:56.940Z,34.84
2023-08-11T14:03:27.399Z,34.80
2023-08-11T14:06:21.719Z,34.76
2023-08-11T14:08:51.304Z,34.55
2023-08-11T14:11:24.236Z,34.29
2023-08-11T14:13:52.739Z,33.79
2023-08-11T14:16:20.786Z,33.50
2023-08-11T14:18:48.892Z,33.30
2023-08-11T14:21:18.858Z,33.20
2023-08-11T14:23:48.002Z,33.01
2023-08-11T14:26:16.050Z,32.85
2023-08-11T14:28:45.445Z,32.70
2023-08-11T14:31:16.360Z,32.46
2023-08-11T14:33:44.327Z,32.31
2023-08-11T14:36:13.193Z,32.21
2023-08-11T14:38:41.697Z,32.09
2023-08-11T14:41:09.573Z,31.97
2023-08-11T14:43:37.368Z,31.97
2023-08-11T14:46:06.958Z,31.90
2023-08-11T14:48:34.928Z,31.88
2023-08-11T14:51:03.210Z,31.75
2023-08-11T14:53:31.280Z,31.66
2023-08-11T14:56:01.877Z,31.61
2023-08-11T14:58:29.751Z,31.61
2023-08-11T15:00:57.634Z,31.60
2023-08-11T15:03:27.951Z,31.55
2023-08-11T15:05:55.864Z,31.38
2023-08-11T15:08:24.182Z,31.22
2023-08-11T15:10:53.133Z,30.84
2023-08-11T15:13:21.143Z,31.08
2023-08-11T15:15:49.036Z,30.66
2023-08-11T15:18:16.907Z,30.55
2023-08-11T15:20:46.105Z,30.59
2023-08-11T15:23:14.026Z,30.60
2023-08-11T15:25:43.754Z,30.46
2023-08-11T15:28:11.925Z,30.38
2023-08-11T15:30:39.818Z,30.38
2023-08-11T15:33:07.756Z,30.79
2023-08-11T15:35:35.682Z,30.73
2023-08-11T15:38:06.984Z,30.86
2023-08-11T15:40:34.814Z,30.91
2023-08-11T15:43:02.728Z,30.90
2023-08-11T15:45:30.604Z,30.95
2023-08-11T15:47:58.484Z,31.14
2023-08-11T15:50:26.325Z,31.19
2023-08-11T15:52:54.176Z,31.29
2023-08-11T15:55:35.717Z,31.38
2023-08-11T15:58:04.437Z,31.38
2023-08-11T16:00:32.368Z,31.27
2023-08-11T16:03:00.598Z,31.10
2023-08-11T16:05:28.622Z,30.97
2023-08-11T16:07:56.476Z,30.88
2023-08-11T16:10:26.005Z,30.77
2023-08-11T16:12:53.962Z,30.65
2023-08-11T16:15:21.999Z,30.58
2023-08-11T16:17:50.718Z,30.46
2023-08-11T16:20:18.563Z,30.34
2023-08-11T16:22:46.414Z,30.15
2023-08-11T16:25:14.237Z,30.06
2023-08-11T16:27:43.469Z,29.97
2023-08-11T16:30:12.685Z,29.89
2023-08-11T16:32:40.604Z,29.80
2023-08-11T16:35:09.183Z,29.69
2023-08-11T16:37:37.284Z,29.61
2023-08-11T16:40:06.690Z,29.56
2023-08-11T16:42:34.538Z,29.48
2023-08-11T16:45:03.889Z,29.39
2023-08-11T16:47:31.737Z,29.30
2023-08-11T16:49:59.612Z,29.23
2023-08-11T16:52:27.484Z,29.22
2023-08-11T16:54:55.283Z,29.13
2023-08-11T16:57:23.737Z,29.00
2023-08-11T16:59:52.059Z,29.00
2023-08-11T17:02:21.313Z,29.00
2023-08-11T17:04:49.228Z,29.07
2023-08-11T17:07:17.427Z,29.11
2023-08-11T17:09:45.847Z,29.24
2023-08-11T17:12:15.077Z,29.64
2023-08-11T17:14:43.304Z,30.70
2023-08-11T17:17:11.350Z,32.04
2023-08-11T17:19:41.151Z,31.75
2023-08-11T17:22:11.910Z,31.19
2023-08-11T17:24:40.884Z,32.49
2023-08-11T17:27:09.018Z,33.13
2023-08-11T17:29:36.890Z,32.33
2023-08-11T17:32:06.909Z,32.82
2023-08-11T17:34:40.160Z,34.65
2023-08-11T17:37:12.693Z,34.95
2023-08-11T17:39:40.812Z,34.04
2023-08-11T17:42:09.487Z,33.10
2023-08-11T17:44:37.879Z,32.15
2023-08-11T17:47:08.779Z,31.28
2023-08-11T17:49:36.864Z,30.50
2023-08-11T17:52:04.984Z,29.81
2023-08-11T17:54:34.457Z,29.18
2023-08-11T17:57:02.975Z,28.67
2023-08-11T17:59:31.007Z,28.23
2023-08-11T18:01:58.882Z,27.87
2023-08-11T18:04:27.263Z,27.57
2023-08-11T18:06:56.813Z,27.28
2023-08-11T18:09:24.905Z,27.00
2023-08-11T18:11:54.890Z,26.73
2023-08-11T18:14:22.768Z,26.48
2023-08-11T18:16:50.825Z,26.24
2023-08-11T18:19:18.886Z,26.02
2023-08-11T18:21:47.118Z,25.85
2023-08-11T18:24:15.397Z,25.68
2023-08-11T18:26:43.443Z,25.57
2023-08-11T18:29:15.799Z,25.45
2023-08-11T18:31:44.041Z,25.30
2023-08-11T18:34:12.025Z,25.20
2023-08-11T18:36:39.829Z,25.08
2023-08-11T18:39:09.002Z,25.00
2023-08-11T18:41:37.045Z,24.87
2023-08-11T18:44:06.644Z,24.75
2023-08-11T18:46:35.997Z,24.56
2023-08-11T18:49:03.882Z,24.42
2023-08-11T18:51:31.943Z,24.17
2023-08-11T18:54:00.220Z,24.05
2023-08-11T18:56:28.075Z,23.98
2023-08-11T18:58:55.942Z,23.87
2023-08-11T19:01:23.978Z,23.76
2023-08-11T19:03:53.262Z,23.70
2023-08-11T19:06:21.195Z,23.65
2023-08-11T19:08:49.049Z,23.57
2023-08-11T19:11:17.278Z,23.39
2023-08-11T19:13:47.500Z,23.37
2023-08-11T19:16:15.734Z,23.28
2023-08-11T19:18:43.744Z,23.20
2023-08-11T19:21:12.930Z,23.14
2023-08-11T19:23:40.783Z,23.06
2023-08-11T19:26:08.735Z,22.90
2023-08-11T19:28:36.657Z,22.84
2023-08-11T19:31:04.908Z,22.77
2023-08-11T19:33:32.801Z,22.62
2023-08-11T19:36:01.109Z,22.47
2023-08-11T19:38:30.631Z,22.25
2023-08-11T19:40:58.648Z,22.16
2023-08-11T19:43:26.481Z,22.25
2023-08-11T19:45:54.491Z,22.25
2023-08-11T19:48:22.477Z,22.18
2023-08-11T19:50:50.879Z,22.08
2023-08-11T19:53:18.945Z,22.02
2023-08-11T19:55:48.165Z,21.55
2023-08-11T19:58:16.407Z,21.72
2023-08-11T20:00:44.823Z,21.93
2023-08-11T20:03:12.825Z,21.86
2023-08-11T20:05:44.801Z,21.86
2023-08-11T20:08:12.639Z,21.82
2023-08-11T20:10:40.490Z,21.76
2023-08-11T20:13:09.610Z,21.63
2023-08-11T20:15:37.432Z,21.55
2023-08-11T20:18:06.047Z,21.51
2023-08-11T20:20:34.090Z,21.51
2023-08-11T20:23:01.929Z,21.49
2023-08-11T20:25:30.934Z,21.47
2023-08-11T20:27:58.845Z,21.50
2023-08-11T20:30:28.061Z,21.47
2023-08-11T20:32:56.144Z,21.49
2023-08-11T20:35:24.081Z,21.38
2023-08-11T20:37:55.350Z,21.35
2023-08-11T20:40:23.215Z,21.37
2023-08-11T20:42:51.032Z,21.34
2023-08-11T20:45:19.069Z,21.32
2023-08-11T20:47:48.356Z,21.34
2023-08-11T20:50:16.538Z,21.33
2023-08-11T20:52:44.325Z,21.29
2023-08-11T20:55:12.175Z,21.25
2023-08-11T20:57:40.036Z,21.25
2023-08-11T21:00:09.402Z,21.22
2023-08-11T21:02:37.241Z,21.24
2023-08-11T21:05:07.266Z,21.18
2023-08-11T21:07:35.121Z,21.15
2023-08-11T21:10:02.953Z,21.09
2023-08-11T21:12:30.788Z,21.07
2023-08-11T21:14:58.567Z,21.06
2023-08-11T21:17:26.392Z,21.00
2023-08-11T21:19:54.261Z,20.92
2023-08-11T21:22:23.457Z,20.87
2023-08-11T21:24:51.280Z,20.83
2023-08-11T21:27:19.198Z,20.76
2023-08-11T21:29:47.050Z,20.73
2023-08-11T21:32:14.906Z,20.72
2023-08-11T21:34:42.855Z,20.65
2023-08-11T21:37:10.898Z,20.58
2023-08-11T21:39:40.485Z,20.48
2023-08-11T21:42:09.341Z,20.42
2023-08-11T21:44:37.492Z,20.33
2023-08-11T21:47:06.188Z,20.33
2023-08-11T21:49:34.029Z,20.34
2023-08-11T21:52:01.873Z,20.34
2023-08-11T21:54:29.734Z,20.30
2023-08-11T21:56:58.920Z,20.22
2023-08-11T21:59:26.742Z,20.24
2023-08-11T22:01:54.593Z,20.23
2023-08-11T22:04:22.681Z,20.26
2023-08-11T22:06:50.524Z,20.26
2023-08-11T22:09:18.354Z,20.29
2023-08-11T22:11:46.267Z,20.26
2023-08-11T22:14:15.516Z,20.25
2023-08-11T22:16:43.369Z,20.23
2023-08-11T22:19:11.236Z,20.19
2023-08-11T22:21:39.061Z,20.13
2023-08-11T22:24:07.521Z,20.11
2023-08-11T22:26:36.188Z,20.04
2023-08-11T22:29:04.644Z,20.00
2023-08-11T22:31:33.801Z,20.00
2023-08-11T22:34:01.624Z,19.96
2023-08-11T22:36:29.423Z,19.93
2023-08-11T22:38:57.212Z,19.87
2023-08-11T22:41:25.095Z,19.83
2023-08-11T22:43:53.002Z,19.83
2023-08-11T22:46:20.828Z,19.82
2023-08-11T22:48:50.034Z,19.81
2023-08-11T22:51:17.889Z,19.77
2023-08-11T22:53:45.773Z,19.78
2023-08-11T22:56:13.589Z,19.75
2023-08-11T22:58:41.421Z,19.69
2023-08-11T23:01:09.302Z,19.66
2023-08-11T23:03:37.129Z,19.66
2023-08-11T23:06:06.346Z,19.64
2023-08-11T23:08:34.216Z,19.64
2023-08-11T23:11:02.097Z,19.62
2023-08-11T23:13:29.978Z,19.58
2023-08-11T23:15:57.816Z,19.55
2023-08-11T23:18:25.684Z,19.51
2023-08-11T23:20:53.518Z,19.49
2023-08-11T23:23:22.765Z,19.37
2023-08-11T23:25:51.217Z,19.28
2023-08-11T23:28:20.115Z,19.23
2023-08-11T23:30:47.993Z,19.16
2023-08-11T23:33:16.308Z,19.16
2023-08-11T23:35:44.294Z,19.16
2023-08-11T23:38:12.310Z,19.13
2023-08-11T23:40:41.516Z,19.14
2023-08-11T23:43:09.340Z,19.18
2023-08-11T23:45:37.198Z,19.19
2023-08-11T23:48:06.163Z,19.17
2023-08-11T23:50:34.061Z,19.13
2023-08-11T23:53:02.425Z,19.12
2023-08-11T23:55:30.412Z,19.17
2023-08-11T23:57:59.605Z,19.20
